Strona główna
METAR-TAF:

METAR-TAF

Lotnisko :

Madryt, Hiszpania

Port lotniczy Madryt-Barajas

Szerokość geograficzna: 40-27N, Długość geograficzna: 003-33W, wysokość: 609 m

Aktualna obserwacja pogody

Raport powstał 36 minut temu, godzina 11:00 UTC
Wiatr 2 kt z kierunków zmiennych
Temperatura 7°C
Wilgotność 70%
Ciśnienie 1026 hPa
Widzialność 10 km lub więcej
Brak chmur poniżej 1500 m i brak chmur cumulonimbus

METAR: LEMD 181100Z VRB02KT CAVOK 07/02 Q1026 NOSIG

czas: 12:36 (11:36 UTC)

Prognoza

Raport powstał 4 godziny i 5 minut temu, godzina 07:31 UTC
Prognoza ważna od 18 godzina 07 UTC do 19 godzina 12 UTC
Wiatr 5 kt z kierunków zmiennych
Widzialność 10 km lub więcej
Brak chmur poniżej 1500 m i brak chmur cumulonimbus

TAF: LEMD 180731Z 1807/1912 VRB05KT CAVOK TX13/1815Z TN00/1906Z

Obserwacja i prognoza pogody dla ponad 4000 lotnisk (raport METAR i TAF).

Dostępne stacje oznaczono żółtymi i czerwonymi punktami na mapie.

Najedź kursorem aby zobaczyć nazwę stacji.

Kliknij aby zobaczyć obserwacje i prognozy pogody.

Aby zmienić mapę: kliknij na zielony przycisk z czarnym krzyżykiem, aby powiększyć; na zielony przycisk z myślnikiem, aby pomniejszyć; na zielone strzałki, aby przejść do map sąsiednich.


METAR-TAF: